createdAt,value
2022-12-25T00:01:10.297Z,43.90
2022-12-25T00:03:38.166Z,44.63
2022-12-25T00:06:05.971Z,39.13
2022-12-25T00:08:33.622Z,40.10
2022-12-25T00:11:10.892Z,45.42
2022-12-25T00:13:39.946Z,42.35
2022-12-25T00:16:12.959Z,40.42
2022-12-25T00:18:39.689Z,48.20
2022-12-25T00:21:07.657Z,42.72
2022-12-25T00:23:35.515Z,47.95
2022-12-25T00:26:07.727Z,44.97
2022-12-25T00:28:35.476Z,37.42
2022-12-25T00:31:11.080Z,47.58
2022-12-25T00:36:07.086Z,41.72
2022-12-25T00:38:36.237Z,44.75
2022-12-25T00:41:11.279Z,48.08
2022-12-25T00:43:38.608Z,49.88
2022-12-25T00:46:06.639Z,58.20
2022-12-25T00:48:34.475Z,46.75
2022-12-25T00:51:04.482Z,41.72
2022-12-25T00:53:31.934Z,51.70
2022-12-25T00:56:01.259Z,50.22
2022-12-25T00:58:30.903Z,48.30
2022-12-25T01:00:57.767Z,45.42
2022-12-25T01:03:25.419Z,39.85
2022-12-25T01:06:05.073Z,53.80
2022-12-25T01:08:34.462Z,46.00
2022-12-25T01:11:04.046Z,49.15
2022-12-25T01:13:33.037Z,47.25
2022-12-25T01:16:04.865Z,44.53
2022-12-25T01:18:31.545Z,42.00
2022-12-25T01:20:58.240Z,46.78
2022-12-25T01:23:24.907Z,51.53
2022-12-25T01:25:51.605Z,50.35
2022-12-25T01:28:18.303Z,45.38
2022-12-25T01:30:49.300Z,53.00
2022-12-25T01:33:15.998Z,47.40
2022-12-25T01:35:42.707Z,58.28
2022-12-25T01:38:09.408Z,51.65
2022-12-25T01:40:36.104Z,54.00
2022-12-25T01:43:02.806Z,50.97
2022-12-25T01:45:35.390Z,45.42
2022-12-25T01:48:09.496Z,57.63
2022-12-25T01:50:38.797Z,50.78
2022-12-25T01:53:06.696Z,53.63
2022-12-25T01:55:34.838Z,51.28
2022-12-25T01:58:01.903Z,51.83
2022-12-25T02:00:28.619Z,49.80
2022-12-25T02:02:56.330Z,54.65
2022-12-25T02:05:34.284Z,58.72
2022-12-25T02:08:11.237Z,54.70
2022-12-25T02:10:37.977Z,67.60
2022-12-25T02:13:05.991Z,55.88
2022-12-25T02:16:08.552Z,53.22
2022-12-25T02:18:44.564Z,59.58
2022-12-25T02:21:39.092Z,60.40
2022-12-25T02:24:11.487Z,49.03
2022-12-25T02:27:02.945Z,65.80
2022-12-25T02:29:56.520Z,66.75
2022-12-25T02:32:51.652Z,53.83
2022-12-25T02:35:26.391Z,58.53
2022-12-25T02:37:57.187Z,60.33
2022-12-25T02:40:38.456Z,49.65
2022-12-25T02:43:09.824Z,56.50
2022-12-25T02:45:48.578Z,60.65
2022-12-25T02:48:17.057Z,60.92
2022-12-25T02:50:43.892Z,58.33
2022-12-25T02:53:12.216Z,52.83
2022-12-25T02:55:41.695Z,56.13
2022-12-25T02:58:15.275Z,55.75
2022-12-25T03:00:46.231Z,55.75
2022-12-25T03:03:15.980Z,50.55
2022-12-25T03:05:43.897Z,49.70
2022-12-25T03:08:19.053Z,56.22
2022-12-25T03:10:50.707Z,52.63
2022-12-25T03:13:21.567Z,60.70
2022-12-25T03:15:49.608Z,59.05
2022-12-25T03:18:18.951Z,51.53
2022-12-25T03:20:45.750Z,54.55
2022-12-25T03:23:15.288Z,51.30
2022-12-25T03:25:41.979Z,52.67
2022-12-25T03:28:08.671Z,54.78
2022-12-25T03:30:49.950Z,51.92
2022-12-25T03:33:55.967Z,47.90
2022-12-25T03:36:34.556Z,56.38
2022-12-25T03:39:09.981Z,57.78
2022-12-25T03:41:51.873Z,58.92
2022-12-25T03:44:21.350Z,53.47
2022-12-25T03:46:54.222Z,48.13
2022-12-25T03:49:30.773Z,47.42
2022-12-25T03:52:01.197Z,42.50
2022-12-25T03:54:30.970Z,40.45
2022-12-25T03:56:58.416Z,54.85
2022-12-25T03:59:25.294Z,55.55
2022-12-25T04:01:52.405Z,46.53
2022-12-25T04:04:19.430Z,48.00
2022-12-25T04:06:46.119Z,46.38
2022-12-25T04:09:12.766Z,53.83
2022-12-25T04:11:39.451Z,47.78
2022-12-25T04:14:06.130Z,48.05
2022-12-25T04:16:32.912Z,49.80
2022-12-25T04:18:59.631Z,51.60
2022-12-25T04:21:26.315Z,49.88
2022-12-25T04:23:52.991Z,51.72
2022-12-25T04:26:20.355Z,49.70
2022-12-25T04:28:46.999Z,43.05
2022-12-25T04:31:13.723Z,47.83
2022-12-25T04:33:40.484Z,44.90
2022-12-25T04:36:07.604Z,45.00
2022-12-25T04:38:34.583Z,48.63
2022-12-25T04:41:02.384Z,49.40
2022-12-25T04:43:29.605Z,54.13
2022-12-25T04:45:58.440Z,49.35
2022-12-25T04:48:26.956Z,54.03
2022-12-25T04:50:53.804Z,50.70
2022-12-25T04:53:20.488Z,42.75
2022-12-25T04:55:49.843Z,49.72
2022-12-25T04:58:16.616Z,46.80
2022-12-25T05:00:43.277Z,60.13
2022-12-25T05:03:10.056Z,50.38
2022-12-25T05:05:39.644Z,46.50
2022-12-25T05:08:06.411Z,49.17
2022-12-25T05:10:33.196Z,52.63
2022-12-25T05:13:00.089Z,45.45
2022-12-25T05:15:26.747Z,46.63
2022-12-25T05:17:53.677Z,54.17
2022-12-25T05:20:20.564Z,56.42
2022-12-25T05:22:47.273Z,50.50
2022-12-25T05:25:14.115Z,52.40
2022-12-25T05:27:41.041Z,44.97
2022-12-25T05:30:08.780Z,52.50
2022-12-25T05:32:35.490Z,44.42
2022-12-25T05:35:02.275Z,48.38
2022-12-25T05:37:29.191Z,49.58
2022-12-25T05:39:56.070Z,50.20
2022-12-25T05:42:22.748Z,52.13
2022-12-25T05:44:49.596Z,53.58
2022-12-25T05:47:16.295Z,49.20
2022-12-25T05:49:43.574Z,50.85
2022-12-25T05:52:10.277Z,54.72
2022-12-25T05:54:37.021Z,53.20
2022-12-25T05:57:03.984Z,48.63
2022-12-25T05:59:32.137Z,57.58
2022-12-25T06:02:00.063Z,52.03
2022-12-25T06:04:26.827Z,53.08
2022-12-25T06:06:53.722Z,50.95
2022-12-25T06:09:20.421Z,55.55
2022-12-25T06:11:47.160Z,55.60
2022-12-25T06:14:15.357Z,57.08
2022-12-25T06:16:42.150Z,57.85
2022-12-25T06:19:08.964Z,66.38
2022-12-25T06:21:35.596Z,58.58
2022-12-25T06:24:02.679Z,61.00
2022-12-25T06:26:29.387Z,72.03
2022-12-25T06:28:56.103Z,60.95
2022-12-25T06:31:24.891Z,60.30
2022-12-25T06:33:51.741Z,60.25
2022-12-25T06:36:26.026Z,55.53
2022-12-25T06:38:53.608Z,61.88
2022-12-25T06:41:22.771Z,51.72
2022-12-25T06:43:51.191Z,50.85
2022-12-25T06:46:18.972Z,65.35
2022-12-25T06:48:46.755Z,59.15
2022-12-25T06:51:14.018Z,92.75
2022-12-25T06:53:41.018Z,263.75
2022-12-25T06:56:14.125Z,193.68
2022-12-25T06:59:01.830Z,85.72
2022-12-25T07:01:47.495Z,82.43
2022-12-25T07:04:28.270Z,190.65
2022-12-25T07:06:54.952Z,144.23
2022-12-25T07:09:21.676Z,155.73
2022-12-25T07:11:48.305Z,481.08
2022-12-25T07:14:23.866Z,159.98
2022-12-25T07:16:51.621Z,296.23
2022-12-25T07:19:18.357Z,163.73
2022-12-25T07:21:45.139Z,207.05
2022-12-25T07:24:11.861Z,134.30
2022-12-25T07:26:38.491Z,176.65
2022-12-25T07:29:05.139Z,196.90
2022-12-25T07:31:31.815Z,214.85
2022-12-25T07:33:58.510Z,371.17
2022-12-25T07:36:25.197Z,395.38
2022-12-25T07:38:51.888Z,167.73
2022-12-25T07:41:18.561Z,276.77
2022-12-25T07:43:45.281Z,249.60
2022-12-25T07:46:12.005Z,245.10
2022-12-25T07:48:38.837Z,222.48
2022-12-25T07:51:08.245Z,222.18
2022-12-25T07:53:35.965Z,224.95
2022-12-25T07:56:05.907Z,251.65
2022-12-25T07:58:33.036Z,286.35
2022-12-25T08:01:17.882Z,262.20
2022-12-25T08:03:48.637Z,338.40
2022-12-25T08:06:15.604Z,517.60
2022-12-25T08:08:42.318Z,541.53
2022-12-25T08:11:10.045Z,786.90
2022-12-25T08:13:37.230Z,629.28
2022-12-25T08:16:06.479Z,648.08
2022-12-25T08:18:33.212Z,489.40
2022-12-25T08:21:11.180Z,801.45
2022-12-25T08:23:40.984Z,679.80
2022-12-25T08:26:10.693Z,695.47
2022-12-25T08:28:37.788Z,485.80
2022-12-25T08:31:28.819Z,881.17
2022-12-25T08:33:57.814Z,575.28
2022-12-25T08:36:25.182Z,371.10
2022-12-25T08:38:55.675Z,362.50
2022-12-25T08:41:26.228Z,189.38
2022-12-25T08:43:53.293Z,181.65
2022-12-25T08:46:20.630Z,180.00
2022-12-25T08:48:49.087Z,208.00
2022-12-25T08:51:18.753Z,154.05
2022-12-25T08:53:47.150Z,183.73
2022-12-25T08:56:14.484Z,126.13
2022-12-25T08:58:41.757Z,136.57
2022-12-25T09:01:08.862Z,87.53
2022-12-25T09:03:35.587Z,71.43
2022-12-25T09:06:07.943Z,54.80
2022-12-25T09:08:35.513Z,64.38
2022-12-25T09:11:03.355Z,92.65
2022-12-25T09:13:30.495Z,64.03
2022-12-25T09:15:57.371Z,60.97
2022-12-25T09:18:24.205Z,68.68
2022-12-25T09:21:01.244Z,67.70
2022-12-25T09:23:28.385Z,74.85
2022-12-25T09:25:55.376Z,76.30
2022-12-25T09:28:22.296Z,99.72
2022-12-25T09:30:53.145Z,153.18
2022-12-25T09:33:20.867Z,128.52
2022-12-25T09:36:01.022Z,141.75
2022-12-25T09:38:28.672Z,96.93
2022-12-25T09:41:18.645Z,136.77
2022-12-25T09:43:54.546Z,67.47
2022-12-25T09:46:30.185Z,58.17
2022-12-25T09:49:40.175Z,56.00
2022-12-25T09:52:20.039Z,44.08
2022-12-25T09:55:19.643Z,40.40
2022-12-25T09:57:52.942Z,40.25
2022-12-25T10:00:25.752Z,36.17
2022-12-25T10:03:01.897Z,32.22
2022-12-25T10:06:02.133Z,38.78
2022-12-25T10:08:54.024Z,41.90
2022-12-25T10:11:45.570Z,42.00
2022-12-25T10:14:30.695Z,117.22
2022-12-25T10:17:11.834Z,63.75
2022-12-25T10:19:57.014Z,77.25
2022-12-25T10:22:33.689Z,100.20
2022-12-25T10:25:02.288Z,64.25
2022-12-25T10:27:41.683Z,56.78
2022-12-25T10:30:16.974Z,66.03
2022-12-25T10:32:45.584Z,59.55
2022-12-25T10:35:21.031Z,62.00
2022-12-25T10:38:02.415Z,54.92
2022-12-25T10:40:44.091Z,73.05
2022-12-25T10:43:37.288Z,84.35
2022-12-25T10:46:11.108Z,66.25
2022-12-25T10:48:42.115Z,73.45
2022-12-25T10:51:08.914Z,67.80
2022-12-25T10:53:41.415Z,53.20
2022-12-25T10:56:16.394Z,51.92
2022-12-25T10:58:43.280Z,59.70
2022-12-25T11:01:10.972Z,41.80
2022-12-25T11:03:46.560Z,47.08
2022-12-25T11:06:25.323Z,42.88
2022-12-25T11:08:58.259Z,60.55
2022-12-25T11:11:26.526Z,40.00
2022-12-25T11:13:59.727Z,50.47
2022-12-25T11:16:31.317Z,44.17
2022-12-25T11:19:00.015Z,37.75
2022-12-25T11:21:26.679Z,38.92
2022-12-25T11:24:05.998Z,37.35
2022-12-25T11:26:48.072Z,40.67
2022-12-25T11:29:37.013Z,38.78
2022-12-25T11:32:05.795Z,39.90
2022-12-25T11:34:44.643Z,35.65
2022-12-25T11:37:41.784Z,40.50
2022-12-25T11:40:35.333Z,33.22
2022-12-25T11:43:19.790Z,32.55
2022-12-25T11:45:55.296Z,30.27
2022-12-25T11:48:27.860Z,38.53
2022-12-25T11:50:59.205Z,31.08
2022-12-25T11:53:31.794Z,29.75
2022-12-25T11:56:02.999Z,29.23
2022-12-25T11:58:49.731Z,29.27
2022-12-25T12:01:33.595Z,30.15
2022-12-25T12:04:03.148Z,29.17
2022-12-25T12:06:37.555Z,29.08
2022-12-25T12:09:41.930Z,27.75
2022-12-25T12:12:29.568Z,23.92
2022-12-25T12:15:08.489Z,23.70
2022-12-25T12:17:35.423Z,27.45
2022-12-25T12:20:24.015Z,24.90
2022-12-25T12:22:51.046Z,25.77
2022-12-25T12:25:18.776Z,32.08
2022-12-25T12:27:45.723Z,27.23
2022-12-25T12:30:29.027Z,25.73
2022-12-25T12:33:02.206Z,22.70
2022-12-25T12:35:32.497Z,20.13
2022-12-25T12:38:18.917Z,20.70
2022-12-25T12:41:02.736Z,23.23
2022-12-25T12:43:41.945Z,24.58
2022-12-25T12:46:25.942Z,23.75
2022-12-25T12:49:23.603Z,22.95
2022-12-25T12:51:51.091Z,23.80
2022-12-25T12:54:24.640Z,22.38
2022-12-25T12:57:27.743Z,23.50
2022-12-25T12:59:56.408Z,21.63
2022-12-25T13:03:00.540Z,27.75
2022-12-25T13:05:45.860Z,21.75
2022-12-25T13:08:28.187Z,17.50
2022-12-25T13:11:20.121Z,21.15
2022-12-25T13:13:49.112Z,20.98
2022-12-25T13:16:25.049Z,18.27
2022-12-25T13:18:53.699Z,16.40
2022-12-25T13:21:28.820Z,19.85
2022-12-25T13:24:07.332Z,17.75
2022-12-25T13:26:34.012Z,25.70
2022-12-25T13:29:01.998Z,21.55
2022-12-25T13:31:31.129Z,20.20
2022-12-25T13:34:09.579Z,21.92
2022-12-25T13:36:39.229Z,18.85
2022-12-25T13:39:13.852Z,23.25
2022-12-25T13:41:49.883Z,25.67
2022-12-25T13:44:21.251Z,27.10
2022-12-25T13:46:48.111Z,25.05
2022-12-25T13:49:20.905Z,23.10
2022-12-25T13:51:48.583Z,23.88
2022-12-25T13:54:17.109Z,22.73
2022-12-25T13:56:52.930Z,24.30
2022-12-25T13:59:23.689Z,24.38
2022-12-25T14:01:52.052Z,25.50
2022-12-25T14:04:24.149Z,31.88
2022-12-25T14:06:51.747Z,34.40
2022-12-25T14:09:19.086Z,35.08
2022-12-25T14:11:50.360Z,29.77
2022-12-25T14:14:24.340Z,33.25
2022-12-25T14:16:53.232Z,29.55
2022-12-25T14:19:31.688Z,34.10
2022-12-25T14:22:04.084Z,32.92
2022-12-25T14:24:33.810Z,35.15
2022-12-25T14:27:03.058Z,29.95
2022-12-25T14:29:36.747Z,29.25
2022-12-25T14:32:09.862Z,30.92
2022-12-25T14:34:37.268Z,31.27
2022-12-25T14:37:05.021Z,30.70
2022-12-25T14:39:36.225Z,35.42
2022-12-25T14:42:26.638Z,28.50
2022-12-25T14:45:05.952Z,33.00
2022-12-25T14:47:39.661Z,33.30
2022-12-25T14:50:34.889Z,32.83
2022-12-25T14:53:02.102Z,30.42
2022-12-25T14:55:30.235Z,34.20
2022-12-25T14:58:02.815Z,33.03
2022-12-25T15:00:37.645Z,28.42
2022-12-25T15:03:18.488Z,29.67
2022-12-25T15:05:45.365Z,36.80
2022-12-25T15:08:12.323Z,34.20
2022-12-25T15:11:01.876Z,33.10
2022-12-25T15:13:31.112Z,36.33
2022-12-25T15:16:06.498Z,34.33
2022-12-25T15:18:45.110Z,28.80
2022-12-25T15:21:24.898Z,29.38
2022-12-25T15:23:53.955Z,30.25
2022-12-25T15:26:20.833Z,32.08
2022-12-25T15:28:47.598Z,31.23
2022-12-25T15:31:26.075Z,26.73
2022-12-25T15:33:59.744Z,31.02
2022-12-25T15:36:27.445Z,29.65
2022-12-25T15:38:54.743Z,34.58
2022-12-25T15:41:34.824Z,33.08
2022-12-25T15:44:01.890Z,31.27
2022-12-25T15:46:28.614Z,31.75
2022-12-25T15:48:55.394Z,31.00
2022-12-25T15:51:22.069Z,32.08
2022-12-25T15:53:51.536Z,31.98
2022-12-25T15:56:21.586Z,33.38
2022-12-25T15:58:48.685Z,28.13
2022-12-25T16:01:16.286Z,32.97
2022-12-25T16:03:44.046Z,28.02
2022-12-25T16:06:16.296Z,37.08
2022-12-25T16:08:43.393Z,35.90
2022-12-25T16:11:10.664Z,32.20
2022-12-25T16:13:37.796Z,34.58
2022-12-25T16:16:05.250Z,33.53
2022-12-25T16:18:32.132Z,32.20
2022-12-25T16:20:59.598Z,37.63
2022-12-25T16:23:26.388Z,39.17
2022-12-25T16:25:53.212Z,32.03
2022-12-25T16:28:19.902Z,31.58
2022-12-25T16:30:46.769Z,32.70
2022-12-25T16:33:13.565Z,38.03
2022-12-25T16:35:40.439Z,39.53
2022-12-25T16:38:07.156Z,33.85
2022-12-25T16:40:34.377Z,35.40
2022-12-25T16:43:01.116Z,36.42
2022-12-25T16:45:27.857Z,35.47
2022-12-25T16:47:56.400Z,33.85
2022-12-25T16:50:23.347Z,34.38
2022-12-25T16:52:50.050Z,31.33
2022-12-25T16:55:16.784Z,34.80
2022-12-25T16:57:43.457Z,40.08
2022-12-25T17:00:10.806Z,40.95
2022-12-25T17:02:37.731Z,35.35
2022-12-25T17:05:04.749Z,37.38
2022-12-25T17:07:31.422Z,41.42
2022-12-25T17:09:58.219Z,40.42
2022-12-25T17:12:24.956Z,41.35
2022-12-25T17:14:52.388Z,34.25
2022-12-25T17:17:19.066Z,33.35
2022-12-25T17:19:45.799Z,45.95
2022-12-25T17:22:12.494Z,41.28
2022-12-25T17:24:39.628Z,39.20
2022-12-25T17:27:06.542Z,33.50
2022-12-25T17:29:33.337Z,38.95
2022-12-25T17:32:00.170Z,45.30
2022-12-25T17:34:27.154Z,32.85
2022-12-25T17:36:54.013Z,43.53
2022-12-25T17:39:20.839Z,40.47
2022-12-25T17:41:49.798Z,46.53
2022-12-25T17:44:17.454Z,39.80
2022-12-25T17:46:44.605Z,37.75
2022-12-25T17:49:15.460Z,37.83
2022-12-25T17:51:42.600Z,43.30
2022-12-25T17:54:09.959Z,44.58
2022-12-25T17:56:36.974Z,46.60
2022-12-25T17:59:05.444Z,39.50
2022-12-25T18:01:32.762Z,55.38
2022-12-25T18:04:02.571Z,45.42
2022-12-25T18:06:29.519Z,43.20
2022-12-25T18:08:58.052Z,37.13
2022-12-25T18:11:28.005Z,47.38
2022-12-25T18:13:55.041Z,42.78
2022-12-25T18:16:24.015Z,44.30
2022-12-25T18:18:52.872Z,41.20
2022-12-25T18:21:21.866Z,49.13
2022-12-25T18:23:49.467Z,51.13
2022-12-25T18:26:16.433Z,40.25
2022-12-25T18:28:43.284Z,43.45
2022-12-25T18:31:12.836Z,41.83
2022-12-25T18:33:39.529Z,44.35
2022-12-25T18:36:06.877Z,54.58
2022-12-25T18:38:33.747Z,38.72
2022-12-25T18:41:03.678Z,61.45
2022-12-25T18:43:53.219Z,51.15
2022-12-25T18:46:17.686Z,48.60
2022-12-25T18:48:44.947Z,52.38
2022-12-25T18:51:13.182Z,46.53
2022-12-25T18:53:40.037Z,45.40
2022-12-25T18:56:10.832Z,49.95
2022-12-25T18:58:37.793Z,57.92
2022-12-25T19:01:19.635Z,40.22
2022-12-25T19:03:46.889Z,52.58
2022-12-25T19:06:29.058Z,43.25
2022-12-25T19:08:56.121Z,42.78
2022-12-25T19:11:23.026Z,52.45
2022-12-25T19:13:49.800Z,42.25
2022-12-25T19:16:17.295Z,41.67
2022-12-25T19:18:44.215Z,37.10
2022-12-25T19:21:11.096Z,38.58
2022-12-25T19:23:38.237Z,51.13
2022-12-25T19:26:06.883Z,37.20
2022-12-25T19:28:34.241Z,37.72
2022-12-25T19:31:01.719Z,37.83
2022-12-25T19:33:31.223Z,38.10
2022-12-25T19:36:02.402Z,40.05
2022-12-25T19:38:29.198Z,39.40
2022-12-25T19:40:56.171Z,35.38
2022-12-25T19:43:22.849Z,47.08
2022-12-25T19:45:49.609Z,42.58
2022-12-25T19:48:16.403Z,40.75
2022-12-25T19:50:43.212Z,41.63
2022-12-25T19:53:09.875Z,48.25
2022-12-25T19:55:36.590Z,36.28
2022-12-25T19:58:03.713Z,47.17
2022-12-25T20:00:30.366Z,45.72
2022-12-25T20:02:57.285Z,38.70
2022-12-25T20:05:24.120Z,46.20
2022-12-25T20:07:50.799Z,37.97
2022-12-25T20:10:17.429Z,42.50
2022-12-25T20:12:44.113Z,40.25
2022-12-25T20:15:11.147Z,42.88
2022-12-25T20:17:37.843Z,38.35
2022-12-25T20:20:05.269Z,41.47
2022-12-25T20:22:31.949Z,48.83
2022-12-25T20:24:58.625Z,53.33
2022-12-25T20:27:25.641Z,47.55
2022-12-25T20:29:52.360Z,44.13
2022-12-25T20:32:19.117Z,46.67
2022-12-25T20:34:46.215Z,48.15
2022-12-25T20:37:13.102Z,54.15
2022-12-25T20:39:39.784Z,51.75
2022-12-25T20:42:06.508Z,50.90
2022-12-25T20:44:33.262Z,41.80
2022-12-25T20:46:59.944Z,46.58
2022-12-25T20:49:27.386Z,42.95
2022-12-25T20:51:55.001Z,40.72
2022-12-25T20:54:24.034Z,39.42
2022-12-25T20:56:50.848Z,43.10
2022-12-25T20:59:17.528Z,41.58
2022-12-25T21:01:44.556Z,41.20
2022-12-25T21:04:16.209Z,43.78
2022-12-25T21:06:43.478Z,38.63
2022-12-25T21:09:10.379Z,40.05
2022-12-25T21:11:37.154Z,43.42
2022-12-25T21:14:03.825Z,38.45
2022-12-25T21:16:30.542Z,45.10
2022-12-25T21:18:57.709Z,39.58
2022-12-25T21:21:24.855Z,36.55
2022-12-25T21:23:51.524Z,41.47
2022-12-25T21:26:23.966Z,41.40
2022-12-25T21:28:53.172Z,46.95
2022-12-25T21:31:20.864Z,40.38
2022-12-25T21:33:47.804Z,40.95
2022-12-25T21:36:14.530Z,46.05
2022-12-25T21:38:41.221Z,38.55
2022-12-25T21:41:10.598Z,36.97
2022-12-25T21:43:39.462Z,35.17
2022-12-25T21:46:11.983Z,35.15
2022-12-25T21:48:39.807Z,41.90
2022-12-25T21:51:10.945Z,42.92
2022-12-25T21:53:37.637Z,42.22
2022-12-25T21:56:04.598Z,39.80
2022-12-25T21:58:31.645Z,39.30
2022-12-25T22:01:03.060Z,38.78
2022-12-25T22:03:29.927Z,40.05
2022-12-25T22:05:57.574Z,41.38
2022-12-25T22:08:28.533Z,40.45
2022-12-25T22:10:55.318Z,42.30
2022-12-25T22:13:22.443Z,42.13
2022-12-25T22:15:49.296Z,44.75
2022-12-25T22:18:16.200Z,38.50
2022-12-25T22:20:43.136Z,33.53
2022-12-25T22:23:09.828Z,40.22
2022-12-25T22:25:36.555Z,40.70
2022-12-25T22:28:03.291Z,36.67
2022-12-25T22:30:30.124Z,36.38
2022-12-25T22:32:57.375Z,37.70
2022-12-25T22:35:24.650Z,40.22
2022-12-25T22:37:51.482Z,35.47
2022-12-25T22:40:19.558Z,34.28
2022-12-25T22:42:46.952Z,38.22
2022-12-25T22:45:14.192Z,35.22
2022-12-25T22:47:41.341Z,33.42
2022-12-25T22:50:09.043Z,31.17
2022-12-25T22:52:37.001Z,29.60
2022-12-25T22:55:05.333Z,32.00
2022-12-25T22:57:32.001Z,30.48
2022-12-25T22:59:58.889Z,27.80
2022-12-25T23:02:26.061Z,25.30
2022-12-25T23:04:52.954Z,25.85
2022-12-25T23:07:19.718Z,28.02
2022-12-25T23:09:46.485Z,28.25
2022-12-25T23:12:13.197Z,27.15
2022-12-25T23:14:40.277Z,28.58
2022-12-25T23:17:12.686Z,22.08
2022-12-25T23:19:39.320Z,23.55
2022-12-25T23:22:05.986Z,21.90
2022-12-25T23:24:32.663Z,21.40
2022-12-25T23:26:59.334Z,19.83
2022-12-25T23:29:26.139Z,22.10
2022-12-25T23:31:52.988Z,20.58
2022-12-25T23:34:20.844Z,20.00
2022-12-25T23:36:48.444Z,17.25
2022-12-25T23:39:15.212Z,21.75
2022-12-25T23:41:43.945Z,20.02
2022-12-25T23:44:12.533Z,18.50
2022-12-25T23:46:40.965Z,21.13
2022-12-25T23:49:08.002Z,17.27
2022-12-25T23:51:36.205Z,23.20
2022-12-25T23:54:06.875Z,17.98
2022-12-25T23:56:33.934Z,17.98
2022-12-25T23:59:00.736Z,17.65
